sensor_id;sensor_type;location;lat;lon;timestamp;P1;durP1;ratioP1;P2;durP2;ratioP2
79533;SDS011;68982;52.160;6.736;2023-11-21T00:01:39;24.85;;;13.23;;
79533;SDS011;68982;52.160;6.736;2023-11-21T00:04:05;24.38;;;12.75;;
79533;SDS011;68982;52.160;6.736;2023-11-21T00:06:32;25.65;;;12.05;;
79533;SDS011;68982;52.160;6.736;2023-11-21T00:08:57;23.40;;;12.43;;
79533;SDS011;68982;52.160;6.736;2023-11-21T00:11:23;24.23;;;12.83;;
79533;SDS011;68982;52.160;6.736;2023-11-21T00:13:50;22.02;;;11.65;;
79533;SDS011;68982;52.160;6.736;2023-11-21T00:16:15;23.42;;;11.55;;
79533;SDS011;68982;52.160;6.736;2023-11-21T00:18:40;20.37;;;10.80;;
79533;SDS011;68982;52.160;6.736;2023-11-21T00:21:07;27.38;;;12.75;;
79533;SDS011;68982;52.160;6.736;2023-11-21T00:23:33;24.25;;;12.13;;
79533;SDS011;68982;52.160;6.736;2023-11-21T00:25:59;25.58;;;13.48;;
79533;SDS011;68982;52.160;6.736;2023-11-21T00:28:24;23.88;;;12.07;;
79533;SDS011;68982;52.160;6.736;2023-11-21T00:30:51;22.88;;;12.38;;
79533;SDS011;68982;52.160;6.736;2023-11-21T00:33:16;24.53;;;12.73;;
79533;SDS011;68982;52.160;6.736;2023-11-21T00:35:41;27.47;;;12.63;;
79533;SDS011;68982;52.160;6.736;2023-11-21T00:38:06;25.90;;;12.93;;
79533;SDS011;68982;52.160;6.736;2023-11-21T00:40:33;24.65;;;13.20;;
79533;SDS011;68982;52.160;6.736;2023-11-21T00:42:58;24.70;;;12.50;;
79533;SDS011;68982;52.160;6.736;2023-11-21T00:45:24;27.88;;;13.95;;
79533;SDS011;68982;52.160;6.736;2023-11-21T00:47:50;23.45;;;12.45;;
79533;SDS011;68982;52.160;6.736;2023-11-21T00:50:16;28.30;;;12.88;;
79533;SDS011;68982;52.160;6.736;2023-11-21T00:52:41;25.25;;;13.77;;
79533;SDS011;68982;52.160;6.736;2023-11-21T00:55:07;27.45;;;13.27;;
79533;SDS011;68982;52.160;6.736;2023-11-21T00:57:33;28.98;;;12.70;;
79533;SDS011;68982;52.160;6.736;2023-11-21T00:59:59;31.40;;;14.07;;
79533;SDS011;68982;52.160;6.736;2023-11-21T01:02:25;24.95;;;12.77;;
79533;SDS011;68982;52.160;6.736;2023-11-21T01:04:50;26.13;;;13.23;;
79533;SDS011;68982;52.160;6.736;2023-11-21T01:07:16;31.85;;;14.38;;
79533;SDS011;68982;52.160;6.736;2023-11-21T01:09:41;26.98;;;13.50;;
79533;SDS011;68982;52.160;6.736;2023-11-21T01:12:07;28.27;;;13.82;;
79533;SDS011;68982;52.160;6.736;2023-11-21T01:14:32;27.75;;;13.73;;
79533;SDS011;68982;52.160;6.736;2023-11-21T01:16:57;27.02;;;13.95;;
79533;SDS011;68982;52.160;6.736;2023-11-21T01:19:23;29.50;;;12.90;;
79533;SDS011;68982;52.160;6.736;2023-11-21T01:21:48;28.48;;;13.27;;
79533;SDS011;68982;52.160;6.736;2023-11-21T01:24:13;27.30;;;13.88;;
79533;SDS011;68982;52.160;6.736;2023-11-21T01:26:39;32.55;;;13.63;;
79533;SDS011;68982;52.160;6.736;2023-11-21T01:29:04;31.33;;;13.70;;
79533;SDS011;68982;52.160;6.736;2023-11-21T01:31:30;35.47;;;13.90;;
79533;SDS011;68982;52.160;6.736;2023-11-21T01:33:56;30.95;;;13.48;;
79533;SDS011;68982;52.160;6.736;2023-11-21T01:36:22;28.27;;;13.27;;
79533;SDS011;68982;52.160;6.736;2023-11-21T01:38:47;26.90;;;13.90;;
79533;SDS011;68982;52.160;6.736;2023-11-21T01:41:13;25.98;;;14.18;;
79533;SDS011;68982;52.160;6.736;2023-11-21T01:43:39;28.77;;;13.57;;
79533;SDS011;68982;52.160;6.736;2023-11-21T01:46:04;31.70;;;13.10;;
79533;SDS011;68982;52.160;6.736;2023-11-21T01:48:31;24.40;;;12.73;;
79533;SDS011;68982;52.160;6.736;2023-11-21T01:50:57;29.83;;;13.75;;
79533;SDS011;68982;52.160;6.736;2023-11-21T01:53:24;27.50;;;14.57;;
79533;SDS011;68982;52.160;6.736;2023-11-21T01:55:51;28.63;;;14.55;;
79533;SDS011;68982;52.160;6.736;2023-11-21T01:58:17;30.98;;;15.48;;
79533;SDS011;68982;52.160;6.736;2023-11-21T02:00:42;29.55;;;15.73;;
79533;SDS011;68982;52.160;6.736;2023-11-21T02:03:08;28.60;;;14.05;;
79533;SDS011;68982;52.160;6.736;2023-11-21T02:05:35;27.40;;;14.10;;
79533;SDS011;68982;52.160;6.736;2023-11-21T02:08:01;27.20;;;12.65;;
79533;SDS011;68982;52.160;6.736;2023-11-21T02:10:27;29.17;;;13.60;;
79533;SDS011;68982;52.160;6.736;2023-11-21T02:12:54;25.25;;;12.73;;
79533;SDS011;68982;52.160;6.736;2023-11-21T02:15:21;28.65;;;12.65;;
79533;SDS011;68982;52.160;6.736;2023-11-21T02:17:48;27.35;;;13.50;;
79533;SDS011;68982;52.160;6.736;2023-11-21T02:20:16;26.33;;;13.90;;
79533;SDS011;68982;52.160;6.736;2023-11-21T02:22:43;24.38;;;13.65;;
79533;SDS011;68982;52.160;6.736;2023-11-21T02:25:10;31.42;;;13.77;;
79533;SDS011;68982;52.160;6.736;2023-11-21T02:27:36;25.42;;;13.38;;
79533;SDS011;68982;52.160;6.736;2023-11-21T02:30:01;26.73;;;13.90;;
79533;SDS011;68982;52.160;6.736;2023-11-21T02:32:29;24.63;;;13.32;;
79533;SDS011;68982;52.160;6.736;2023-11-21T02:34:56;28.38;;;14.90;;
79533;SDS011;68982;52.160;6.736;2023-11-21T02:37:25;27.90;;;15.05;;
79533;SDS011;68982;52.160;6.736;2023-11-21T02:39:51;29.27;;;16.30;;
79533;SDS011;68982;52.160;6.736;2023-11-21T02:42:17;27.27;;;13.80;;
79533;SDS011;68982;52.160;6.736;2023-11-21T02:44:43;24.95;;;13.73;;
79533;SDS011;68982;52.160;6.736;2023-11-21T02:47:08;31.75;;;14.55;;
79533;SDS011;68982;52.160;6.736;2023-11-21T02:49:34;28.13;;;14.60;;
79533;SDS011;68982;52.160;6.736;2023-11-21T02:52:00;26.65;;;13.60;;
79533;SDS011;68982;52.160;6.736;2023-11-21T02:54:26;22.90;;;12.60;;
79533;SDS011;68982;52.160;6.736;2023-11-21T02:56:52;25.27;;;13.50;;
79533;SDS011;68982;52.160;6.736;2023-11-21T02:59:17;24.58;;;12.93;;
79533;SDS011;68982;52.160;6.736;2023-11-21T03:01:44;24.40;;;12.38;;
79533;SDS011;68982;52.160;6.736;2023-11-21T03:04:09;28.65;;;14.15;;
79533;SDS011;68982;52.160;6.736;2023-11-21T03:06:35;28.73;;;13.98;;
79533;SDS011;68982;52.160;6.736;2023-11-21T03:09:00;30.50;;;14.63;;
79533;SDS011;68982;52.160;6.736;2023-11-21T03:11:25;25.98;;;13.93;;
79533;SDS011;68982;52.160;6.736;2023-11-21T03:13:51;29.87;;;13.87;;
79533;SDS011;68982;52.160;6.736;2023-11-21T03:16:16;31.30;;;13.43;;
79533;SDS011;68982;52.160;6.736;2023-11-21T03:18:42;28.73;;;14.60;;
79533;SDS011;68982;52.160;6.736;2023-11-21T03:21:07;31.17;;;13.83;;
79533;SDS011;68982;52.160;6.736;2023-11-21T03:23:36;27.77;;;15.55;;
79533;SDS011;68982;52.160;6.736;2023-11-21T03:26:02;26.13;;;13.23;;
79533;SDS011;68982;52.160;6.736;2023-11-21T03:28:28;31.15;;;14.60;;
79533;SDS011;68982;52.160;6.736;2023-11-21T03:30:53;29.02;;;13.95;;
79533;SDS011;68982;52.160;6.736;2023-11-21T03:33:19;27.40;;;14.18;;
79533;SDS011;68982;52.160;6.736;2023-11-21T03:35:45;30.25;;;14.60;;
79533;SDS011;68982;52.160;6.736;2023-11-21T03:38:11;30.67;;;14.65;;
79533;SDS011;68982;52.160;6.736;2023-11-21T03:40:37;30.38;;;14.40;;
79533;SDS011;68982;52.160;6.736;2023-11-21T03:43:02;28.90;;;13.88;;
79533;SDS011;68982;52.160;6.736;2023-11-21T03:45:28;36.05;;;14.38;;
79533;SDS011;68982;52.160;6.736;2023-11-21T03:47:53;31.13;;;14.93;;
79533;SDS011;68982;52.160;6.736;2023-11-21T03:50:18;31.47;;;14.03;;
79533;SDS011;68982;52.160;6.736;2023-11-21T03:52:44;32.33;;;14.50;;
79533;SDS011;68982;52.160;6.736;2023-11-21T03:55:09;32.27;;;14.97;;
79533;SDS011;68982;52.160;6.736;2023-11-21T03:57:35;37.85;;;16.65;;
79533;SDS011;68982;52.160;6.736;2023-11-21T04:00:01;27.95;;;14.93;;
79533;SDS011;68982;52.160;6.736;2023-11-21T04:04:54;29.38;;;14.20;;
79533;SDS011;68982;52.160;6.736;2023-11-21T04:07:20;30.83;;;14.27;;
79533;SDS011;68982;52.160;6.736;2023-11-21T04:09:46;30.58;;;14.68;;
79533;SDS011;68982;52.160;6.736;2023-11-21T04:12:12;32.47;;;14.63;;
79533;SDS011;68982;52.160;6.736;2023-11-21T04:14:37;30.67;;;14.53;;
79533;SDS011;68982;52.160;6.736;2023-11-21T04:17:03;34.83;;;15.05;;
79533;SDS011;68982;52.160;6.736;2023-11-21T04:19:29;38.25;;;15.18;;
79533;SDS011;68982;52.160;6.736;2023-11-21T04:21:55;29.83;;;14.77;;
79533;SDS011;68982;52.160;6.736;2023-11-21T04:24:20;31.93;;;14.80;;
79533;SDS011;68982;52.160;6.736;2023-11-21T04:26:45;29.55;;;15.88;;
79533;SDS011;68982;52.160;6.736;2023-11-21T04:29:11;30.08;;;13.38;;
79533;SDS011;68982;52.160;6.736;2023-11-21T04:31:37;31.85;;;14.80;;
79533;SDS011;68982;52.160;6.736;2023-11-21T04:34:02;36.58;;;16.10;;
79533;SDS011;68982;52.160;6.736;2023-11-21T04:36:29;36.80;;;14.95;;
79533;SDS011;68982;52.160;6.736;2023-11-21T04:38:55;39.40;;;15.02;;
79533;SDS011;68982;52.160;6.736;2023-11-21T04:41:21;34.88;;;16.05;;
79533;SDS011;68982;52.160;6.736;2023-11-21T04:43:46;35.30;;;15.03;;
79533;SDS011;68982;52.160;6.736;2023-11-21T04:46:11;34.77;;;14.07;;
79533;SDS011;68982;52.160;6.736;2023-11-21T04:48:37;36.58;;;15.30;;
79533;SDS011;68982;52.160;6.736;2023-11-21T04:51:02;35.40;;;14.80;;
79533;SDS011;68982;52.160;6.736;2023-11-21T04:53:29;33.85;;;14.73;;
79533;SDS011;68982;52.160;6.736;2023-11-21T04:55:54;35.15;;;15.52;;
79533;SDS011;68982;52.160;6.736;2023-11-21T04:58:20;34.53;;;15.23;;
79533;SDS011;68982;52.160;6.736;2023-11-21T05:00:45;46.03;;;17.40;;
79533;SDS011;68982;52.160;6.736;2023-11-21T05:03:11;41.58;;;16.20;;
79533;SDS011;68982;52.160;6.736;2023-11-21T05:05:37;33.08;;;15.43;;
79533;SDS011;68982;52.160;6.736;2023-11-21T05:08:02;34.72;;;16.00;;
79533;SDS011;68982;52.160;6.736;2023-11-21T05:10:28;35.80;;;14.35;;
79533;SDS011;68982;52.160;6.736;2023-11-21T05:12:55;34.47;;;14.73;;
79533;SDS011;68982;52.160;6.736;2023-11-21T05:15:20;38.03;;;14.98;;
79533;SDS011;68982;52.160;6.736;2023-11-21T05:17:46;37.15;;;14.82;;
79533;SDS011;68982;52.160;6.736;2023-11-21T05:20:15;39.80;;;16.52;;
79533;SDS011;68982;52.160;6.736;2023-11-21T05:22:43;40.55;;;15.52;;
79533;SDS011;68982;52.160;6.736;2023-11-21T05:25:08;39.22;;;15.70;;
79533;SDS011;68982;52.160;6.736;2023-11-21T05:27:34;31.15;;;14.68;;
79533;SDS011;68982;52.160;6.736;2023-11-21T05:30:03;40.08;;;15.18;;
79533;SDS011;68982;52.160;6.736;2023-11-21T05:32:30;37.30;;;14.88;;
79533;SDS011;68982;52.160;6.736;2023-11-21T05:34:56;54.92;;;15.52;;
79533;SDS011;68982;52.160;6.736;2023-11-21T05:37:21;38.42;;;13.95;;
79533;SDS011;68982;52.160;6.736;2023-11-21T05:39:48;33.83;;;14.07;;
79533;SDS011;68982;52.160;6.736;2023-11-21T05:42:13;30.70;;;14.70;;
79533;SDS011;68982;52.160;6.736;2023-11-21T05:44:40;40.35;;;14.52;;
79533;SDS011;68982;52.160;6.736;2023-11-21T05:47:07;36.40;;;14.50;;
79533;SDS011;68982;52.160;6.736;2023-11-21T05:49:32;28.30;;;13.82;;
79533;SDS011;68982;52.160;6.736;2023-11-21T05:51:58;33.08;;;13.55;;
79533;SDS011;68982;52.160;6.736;2023-11-21T05:54:23;32.63;;;14.30;;
79533;SDS011;68982;52.160;6.736;2023-11-21T05:56:49;30.10;;;14.23;;
79533;SDS011;68982;52.160;6.736;2023-11-21T05:59:14;31.13;;;14.57;;
79533;SDS011;68982;52.160;6.736;2023-11-21T06:01:40;32.60;;;14.25;;
79533;SDS011;68982;52.160;6.736;2023-11-21T06:04:05;31.80;;;14.50;;
79533;SDS011;68982;52.160;6.736;2023-11-21T06:06:33;30.20;;;14.35;;
79533;SDS011;68982;52.160;6.736;2023-11-21T06:08:58;32.43;;;14.27;;
79533;SDS011;68982;52.160;6.736;2023-11-21T06:11:23;30.47;;;14.40;;
79533;SDS011;68982;52.160;6.736;2023-11-21T06:13:49;31.42;;;14.23;;
79533;SDS011;68982;52.160;6.736;2023-11-21T06:16:15;31.10;;;13.30;;
79533;SDS011;68982;52.160;6.736;2023-11-21T06:18:42;29.88;;;13.73;;
79533;SDS011;68982;52.160;6.736;2023-11-21T06:21:11;30.55;;;14.43;;
79533;SDS011;68982;52.160;6.736;2023-11-21T06:23:37;33.85;;;14.82;;
79533;SDS011;68982;52.160;6.736;2023-11-21T06:26:03;31.30;;;14.55;;
79533;SDS011;68982;52.160;6.736;2023-11-21T06:28:29;30.83;;;14.57;;
79533;SDS011;68982;52.160;6.736;2023-11-21T06:30:55;31.20;;;14.80;;
79533;SDS011;68982;52.160;6.736;2023-11-21T06:33:21;38.17;;;15.02;;
79533;SDS011;68982;52.160;6.736;2023-11-21T06:35:46;30.63;;;13.52;;
79533;SDS011;68982;52.160;6.736;2023-11-21T06:38:12;33.40;;;14.68;;
79533;SDS011;68982;52.160;6.736;2023-11-21T06:40:37;30.87;;;14.10;;
79533;SDS011;68982;52.160;6.736;2023-11-21T06:43:03;33.47;;;15.18;;
79533;SDS011;68982;52.160;6.736;2023-11-21T06:45:31;28.17;;;13.88;;
79533;SDS011;68982;52.160;6.736;2023-11-21T06:47:57;33.25;;;13.85;;
79533;SDS011;68982;52.160;6.736;2023-11-21T06:50:22;28.70;;;13.60;;
79533;SDS011;68982;52.160;6.736;2023-11-21T06:52:47;27.60;;;13.73;;
79533;SDS011;68982;52.160;6.736;2023-11-21T06:55:13;28.77;;;13.68;;
79533;SDS011;68982;52.160;6.736;2023-11-21T06:57:39;29.60;;;14.50;;
79533;SDS011;68982;52.160;6.736;2023-11-21T07:00:04;28.05;;;14.48;;
79533;SDS011;68982;52.160;6.736;2023-11-21T07:02:31;29.27;;;14.50;;
79533;SDS011;68982;52.160;6.736;2023-11-21T07:04:56;30.45;;;13.40;;
79533;SDS011;68982;52.160;6.736;2023-11-21T07:07:21;27.63;;;13.97;;
79533;SDS011;68982;52.160;6.736;2023-11-21T07:09:47;32.10;;;14.32;;
79533;SDS011;68982;52.160;6.736;2023-11-21T07:12:13;27.40;;;13.35;;
79533;SDS011;68982;52.160;6.736;2023-11-21T07:14:39;29.30;;;13.55;;
79533;SDS011;68982;52.160;6.736;2023-11-21T07:17:06;28.08;;;14.23;;
79533;SDS011;68982;52.160;6.736;2023-11-21T07:19:31;28.65;;;14.23;;
79533;SDS011;68982;52.160;6.736;2023-11-21T07:21:57;32.08;;;13.57;;
79533;SDS011;68982;52.160;6.736;2023-11-21T07:24:25;27.40;;;13.88;;
79533;SDS011;68982;52.160;6.736;2023-11-21T07:26:51;29.80;;;12.95;;
79533;SDS011;68982;52.160;6.736;2023-11-21T07:29:21;30.05;;;14.13;;
79533;SDS011;68982;52.160;6.736;2023-11-21T07:31:48;30.05;;;13.68;;
79533;SDS011;68982;52.160;6.736;2023-11-21T07:34:13;26.47;;;13.70;;
79533;SDS011;68982;52.160;6.736;2023-11-21T07:36:38;29.73;;;14.20;;
79533;SDS011;68982;52.160;6.736;2023-11-21T07:39:04;30.40;;;14.40;;
79533;SDS011;68982;52.160;6.736;2023-11-21T07:41:31;27.77;;;12.88;;
79533;SDS011;68982;52.160;6.736;2023-11-21T07:43:57;31.27;;;13.00;;
79533;SDS011;68982;52.160;6.736;2023-11-21T07:46:22;29.23;;;12.88;;
79533;SDS011;68982;52.160;6.736;2023-11-21T07:48:48;27.98;;;13.10;;
79533;SDS011;68982;52.160;6.736;2023-11-21T07:51:14;29.33;;;12.93;;
79533;SDS011;68982;52.160;6.736;2023-11-21T07:53:39;27.90;;;14.60;;
79533;SDS011;68982;52.160;6.736;2023-11-21T07:56:06;32.60;;;15.38;;
79533;SDS011;68982;52.160;6.736;2023-11-21T07:58:35;31.30;;;15.95;;
79533;SDS011;68982;52.160;6.736;2023-11-21T08:01:02;33.03;;;14.68;;
79533;SDS011;68982;52.160;6.736;2023-11-21T08:03:28;28.50;;;14.63;;
79533;SDS011;68982;52.160;6.736;2023-11-21T08:05:57;29.88;;;13.65;;
79533;SDS011;68982;52.160;6.736;2023-11-21T08:08:23;33.50;;;14.63;;
79533;SDS011;68982;52.160;6.736;2023-11-21T08:10:49;31.27;;;14.13;;
79533;SDS011;68982;52.160;6.736;2023-11-21T08:13:24;29.38;;;13.73;;
79533;SDS011;68982;52.160;6.736;2023-11-21T08:15:54;34.38;;;14.45;;
79533;SDS011;68982;52.160;6.736;2023-11-21T08:18:21;29.05;;;14.82;;
79533;SDS011;68982;52.160;6.736;2023-11-21T08:20:47;29.52;;;14.77;;
79533;SDS011;68982;52.160;6.736;2023-11-21T08:23:13;28.63;;;14.63;;
79533;SDS011;68982;52.160;6.736;2023-11-21T08:25:44;30.05;;;14.50;;
79533;SDS011;68982;52.160;6.736;2023-11-21T08:28:10;28.15;;;12.48;;
79533;SDS011;68982;52.160;6.736;2023-11-21T08:30:35;28.00;;;12.95;;
79533;SDS011;68982;52.160;6.736;2023-11-21T08:33:01;30.95;;;13.65;;
79533;SDS011;68982;52.160;6.736;2023-11-21T08:35:28;33.13;;;14.65;;
79533;SDS011;68982;52.160;6.736;2023-11-21T08:37:53;31.08;;;14.82;;
79533;SDS011;68982;52.160;6.736;2023-11-21T08:40:19;33.42;;;13.68;;
79533;SDS011;68982;52.160;6.736;2023-11-21T08:42:46;29.10;;;14.02;;
79533;SDS011;68982;52.160;6.736;2023-11-21T08:45:11;29.92;;;13.85;;
79533;SDS011;68982;52.160;6.736;2023-11-21T08:47:38;32.75;;;15.55;;
79533;SDS011;68982;52.160;6.736;2023-11-21T08:50:04;32.67;;;14.52;;
79533;SDS011;68982;52.160;6.736;2023-11-21T08:52:32;29.65;;;14.18;;
79533;SDS011;68982;52.160;6.736;2023-11-21T08:54:58;29.70;;;13.98;;
79533;SDS011;68982;52.160;6.736;2023-11-21T08:57:27;27.00;;;12.93;;
79533;SDS011;68982;52.160;6.736;2023-11-21T08:59:53;29.60;;;13.32;;
79533;SDS011;68982;52.160;6.736;2023-11-21T09:02:21;27.98;;;13.43;;
79533;SDS011;68982;52.160;6.736;2023-11-21T09:04:48;26.77;;;13.23;;
79533;SDS011;68982;52.160;6.736;2023-11-21T09:07:13;24.08;;;11.95;;
79533;SDS011;68982;52.160;6.736;2023-11-21T09:09:39;29.40;;;12.93;;
79533;SDS011;68982;52.160;6.736;2023-11-21T09:12:04;26.47;;;13.20;;
79533;SDS011;68982;52.160;6.736;2023-11-21T09:14:30;26.55;;;12.27;;
79533;SDS011;68982;52.160;6.736;2023-11-21T09:16:55;23.38;;;12.07;;
79533;SDS011;68982;52.160;6.736;2023-11-21T09:19:21;35.30;;;14.68;;
79533;SDS011;68982;52.160;6.736;2023-11-21T09:21:46;27.70;;;12.73;;
79533;SDS011;68982;52.160;6.736;2023-11-21T09:24:12;24.02;;;12.02;;
79533;SDS011;68982;52.160;6.736;2023-11-21T09:26:37;27.17;;;13.20;;
79533;SDS011;68982;52.160;6.736;2023-11-21T09:29:02;30.40;;;13.43;;
79533;SDS011;68982;52.160;6.736;2023-11-21T09:31:28;30.70;;;13.80;;
79533;SDS011;68982;52.160;6.736;2023-11-21T09:33:53;30.15;;;13.60;;
79533;SDS011;68982;52.160;6.736;2023-11-21T09:36:19;32.97;;;13.70;;
79533;SDS011;68982;52.160;6.736;2023-11-21T09:38:47;31.42;;;14.15;;
79533;SDS011;68982;52.160;6.736;2023-11-21T09:44:09;29.33;;;13.55;;
79533;SDS011;68982;52.160;6.736;2023-11-21T09:46:40;28.33;;;13.52;;
79533;SDS011;68982;52.160;6.736;2023-11-21T09:49:08;27.63;;;13.55;;
79533;SDS011;68982;52.160;6.736;2023-11-21T09:51:39;25.67;;;12.00;;
79533;SDS011;68982;52.160;6.736;2023-11-21T09:54:06;24.25;;;11.48;;
79533;SDS011;68982;52.160;6.736;2023-11-21T09:56:35;21.65;;;10.68;;
79533;SDS011;68982;52.160;6.736;2023-11-21T09:59:01;23.25;;;11.63;;
79533;SDS011;68982;52.160;6.736;2023-11-21T10:04:01;18.00;;;9.50;;
79533;SDS011;68982;52.160;6.736;2023-11-21T10:06:26;18.17;;;10.57;;
79533;SDS011;68982;52.160;6.736;2023-11-21T10:08:53;20.52;;;10.18;;
79533;SDS011;68982;52.160;6.736;2023-11-21T10:11:23;16.95;;;10.30;;
79533;SDS011;68982;52.160;6.736;2023-11-21T10:13:52;19.92;;;10.27;;
79533;SDS011;68982;52.160;6.736;2023-11-21T10:16:19;19.05;;;10.52;;
79533;SDS011;68982;52.160;6.736;2023-11-21T10:18:47;18.85;;;9.73;;
79533;SDS011;68982;52.160;6.736;2023-11-21T10:21:17;19.20;;;10.48;;
79533;SDS011;68982;52.160;6.736;2023-11-21T10:23:43;19.38;;;10.82;;
79533;SDS011;68982;52.160;6.736;2023-11-21T10:26:09;21.17;;;10.65;;
79533;SDS011;68982;52.160;6.736;2023-11-21T10:28:41;19.10;;;9.95;;
79533;SDS011;68982;52.160;6.736;2023-11-21T10:31:20;19.10;;;10.35;;
79533;SDS011;68982;52.160;6.736;2023-11-21T10:33:45;20.90;;;10.85;;
79533;SDS011;68982;52.160;6.736;2023-11-21T10:36:11;22.13;;;11.07;;
79533;SDS011;68982;52.160;6.736;2023-11-21T10:38:42;19.60;;;10.67;;
79533;SDS011;68982;52.160;6.736;2023-11-21T10:41:10;20.50;;;10.38;;
79533;SDS011;68982;52.160;6.736;2023-11-21T10:43:38;19.85;;;10.05;;
79533;SDS011;68982;52.160;6.736;2023-11-21T10:46:03;21.08;;;10.45;;
79533;SDS011;68982;52.160;6.736;2023-11-21T10:48:30;17.60;;;9.27;;
79533;SDS011;68982;52.160;6.736;2023-11-21T10:50:56;19.15;;;9.60;;
79533;SDS011;68982;52.160;6.736;2023-11-21T10:53:22;20.40;;;10.17;;
79533;SDS011;68982;52.160;6.736;2023-11-21T10:55:48;19.95;;;10.48;;
79533;SDS011;68982;52.160;6.736;2023-11-21T10:58:14;19.35;;;10.25;;
79533;SDS011;68982;52.160;6.736;2023-11-21T11:00:39;20.40;;;10.52;;
79533;SDS011;68982;52.160;6.736;2023-11-21T11:03:05;17.88;;;9.52;;
79533;SDS011;68982;52.160;6.736;2023-11-21T11:05:35;19.30;;;10.68;;
79533;SDS011;68982;52.160;6.736;2023-11-21T11:08:04;18.83;;;9.80;;
79533;SDS011;68982;52.160;6.736;2023-11-21T11:10:30;19.63;;;9.98;;
79533;SDS011;68982;52.160;6.736;2023-11-21T11:12:56;18.65;;;9.02;;
79533;SDS011;68982;52.160;6.736;2023-11-21T11:15:23;16.88;;;8.88;;
79533;SDS011;68982;52.160;6.736;2023-11-21T11:17:49;18.25;;;9.13;;
79533;SDS011;68982;52.160;6.736;2023-11-21T11:20:16;18.95;;;9.68;;
79533;SDS011;68982;52.160;6.736;2023-11-21T11:25:20;21.80;;;8.95;;
79533;SDS011;68982;52.160;6.736;2023-11-21T11:28:35;18.67;;;9.65;;
79533;SDS011;68982;52.160;6.736;2023-11-21T11:31:23;18.88;;;8.77;;
79533;SDS011;68982;52.160;6.736;2023-11-21T11:33:59;17.45;;;8.35;;
79533;SDS011;68982;52.160;6.736;2023-11-21T11:36:44;17.92;;;9.15;;
79533;SDS011;68982;52.160;6.736;2023-11-21T11:39:26;16.98;;;8.35;;
79533;SDS011;68982;52.160;6.736;2023-11-21T11:41:52;17.80;;;8.75;;
79533;SDS011;68982;52.160;6.736;2023-11-21T11:47:23;22.27;;;8.95;;
79533;SDS011;68982;52.160;6.736;2023-11-21T11:50:03;17.45;;;8.93;;
79533;SDS011;68982;52.160;6.736;2023-11-21T11:52:51;16.75;;;9.23;;
79533;SDS011;68982;52.160;6.736;2023-11-21T11:55:18;19.40;;;9.43;;
79533;SDS011;68982;52.160;6.736;2023-11-21T11:57:52;19.88;;;9.23;;
79533;SDS011;68982;52.160;6.736;2023-11-21T12:02:55;21.20;;;9.77;;
79533;SDS011;68982;52.160;6.736;2023-11-21T12:05:24;21.25;;;9.68;;
79533;SDS011;68982;52.160;6.736;2023-11-21T12:10:26;19.05;;;8.88;;
79533;SDS011;68982;52.160;6.736;2023-11-21T12:12:54;17.85;;;8.35;;
79533;SDS011;68982;52.160;6.736;2023-11-21T12:15:22;13.88;;;7.68;;
79533;SDS011;68982;52.160;6.736;2023-11-21T12:17:48;19.65;;;9.95;;
79533;SDS011;68982;52.160;6.736;2023-11-21T12:20:15;19.02;;;9.23;;
79533;SDS011;68982;52.160;6.736;2023-11-21T12:22:47;18.15;;;9.13;;
79533;SDS011;68982;52.160;6.736;2023-11-21T12:25:19;25.35;;;13.55;;
79533;SDS011;68982;52.160;6.736;2023-11-21T12:27:49;30.73;;;17.10;;
79533;SDS011;68982;52.160;6.736;2023-11-21T12:30:16;27.60;;;13.85;;
79533;SDS011;68982;52.160;6.736;2023-11-21T12:32:43;21.42;;;9.48;;
79533;SDS011;68982;52.160;6.736;2023-11-21T12:35:12;26.00;;;13.25;;
79533;SDS011;68982;52.160;6.736;2023-11-21T12:37:38;24.60;;;13.18;;
79533;SDS011;68982;52.160;6.736;2023-11-21T12:40:05;19.85;;;9.95;;
79533;SDS011;68982;52.160;6.736;2023-11-21T12:42:33;22.25;;;9.55;;
79533;SDS011;68982;52.160;6.736;2023-11-21T12:45:32;20.70;;;9.45;;
79533;SDS011;68982;52.160;6.736;2023-11-21T12:47:54;18.88;;;8.80;;
79533;SDS011;68982;52.160;6.736;2023-11-21T12:50:24;22.10;;;10.85;;
79533;SDS011;68982;52.160;6.736;2023-11-21T12:53:06;25.40;;;10.45;;
79533;SDS011;68982;52.160;6.736;2023-11-21T12:55:37;24.23;;;10.93;;
79533;SDS011;68982;52.160;6.736;2023-11-21T12:58:03;24.27;;;11.20;;
79533;SDS011;68982;52.160;6.736;2023-11-21T13:00:42;24.30;;;10.70;;
79533;SDS011;68982;52.160;6.736;2023-11-21T13:03:10;22.75;;;10.40;;
79533;SDS011;68982;52.160;6.736;2023-11-21T13:05:37;24.63;;;12.07;;
79533;SDS011;68982;52.160;6.736;2023-11-21T13:08:04;27.92;;;12.55;;
79533;SDS011;68982;52.160;6.736;2023-11-21T13:10:35;29.02;;;13.00;;
79533;SDS011;68982;52.160;6.736;2023-11-21T13:13:05;26.52;;;11.55;;
79533;SDS011;68982;52.160;6.736;2023-11-21T13:15:34;27.67;;;12.95;;
79533;SDS011;68982;52.160;6.736;2023-11-21T13:18:03;30.17;;;15.25;;
79533;SDS011;68982;52.160;6.736;2023-11-21T13:20:28;26.83;;;12.77;;
79533;SDS011;68982;52.160;6.736;2023-11-21T13:22:58;25.00;;;12.68;;
79533;SDS011;68982;52.160;6.736;2023-11-21T13:25:30;30.10;;;13.40;;
79533;SDS011;68982;52.160;6.736;2023-11-21T13:27:59;27.23;;;13.90;;
79533;SDS011;68982;52.160;6.736;2023-11-21T13:30:25;31.10;;;14.85;;
79533;SDS011;68982;52.160;6.736;2023-11-21T13:32:55;25.77;;;12.85;;
79533;SDS011;68982;52.160;6.736;2023-11-21T13:38:13;25.88;;;12.88;;
79533;SDS011;68982;52.160;6.736;2023-11-21T13:40:41;23.60;;;11.77;;
79533;SDS011;68982;52.160;6.736;2023-11-21T13:43:13;28.95;;;15.38;;
79533;SDS011;68982;52.160;6.736;2023-11-21T13:45:40;29.60;;;14.55;;
79533;SDS011;68982;52.160;6.736;2023-11-21T13:48:07;27.42;;;12.30;;
79533;SDS011;68982;52.160;6.736;2023-11-21T13:50:37;26.48;;;12.50;;
79533;SDS011;68982;52.160;6.736;2023-11-21T13:53:02;45.95;;;20.10;;
79533;SDS011;68982;52.160;6.736;2023-11-21T13:55:43;55.13;;;23.65;;
79533;SDS011;68982;52.160;6.736;2023-11-21T13:58:10;45.03;;;19.83;;
79533;SDS011;68982;52.160;6.736;2023-11-21T14:00:41;23.35;;;13.55;;
79533;SDS011;68982;52.160;6.736;2023-11-21T14:03:10;34.00;;;21.80;;
79533;SDS011;68982;52.160;6.736;2023-11-21T14:05:44;22.88;;;14.57;;
79533;SDS011;68982;52.160;6.736;2023-11-21T14:08:13;22.05;;;12.32;;
79533;SDS011;68982;52.160;6.736;2023-11-21T14:10:41;20.15;;;11.98;;
79533;SDS011;68982;52.160;6.736;2023-11-21T14:13:14;16.60;;;9.75;;
79533;SDS011;68982;52.160;6.736;2023-11-21T14:15:41;15.60;;;8.85;;
79533;SDS011;68982;52.160;6.736;2023-11-21T14:18:10;15.98;;;9.77;;
79533;SDS011;68982;52.160;6.736;2023-11-21T14:20:37;13.30;;;7.80;;
79533;SDS011;68982;52.160;6.736;2023-11-21T14:23:04;16.70;;;7.97;;
79533;SDS011;68982;52.160;6.736;2023-11-21T14:25:32;13.40;;;7.22;;
79533;SDS011;68982;52.160;6.736;2023-11-21T14:27:58;12.23;;;7.25;;
79533;SDS011;68982;52.160;6.736;2023-11-21T14:30:24;13.80;;;8.40;;
79533;SDS011;68982;52.160;6.736;2023-11-21T14:32:50;14.25;;;8.85;;
79533;SDS011;68982;52.160;6.736;2023-11-21T14:35:16;12.50;;;8.13;;
79533;SDS011;68982;52.160;6.736;2023-11-21T14:37:42;12.55;;;7.65;;
79533;SDS011;68982;52.160;6.736;2023-11-21T14:40:08;11.88;;;7.35;;
79533;SDS011;68982;52.160;6.736;2023-11-21T14:42:34;12.75;;;7.47;;
79533;SDS011;68982;52.160;6.736;2023-11-21T14:45:02;10.75;;;6.93;;